sensor_id;sensor_type;location;lat;lon;timestamp;P1;durP1;ratioP1;P2;durP2;ratioP2
77012;SDS011;67260;53.130;17.982;2023-04-15T00:02:20;13.70;;;8.60;;
77012;SDS011;67260;53.130;17.982;2023-04-15T00:04:46;12.10;;;7.50;;
77012;SDS011;67260;53.130;17.982;2023-04-15T00:07:13;13.70;;;8.40;;
77012;SDS011;67260;53.130;17.982;2023-04-15T00:12:10;12.80;;;7.40;;
77012;SDS011;67260;53.130;17.982;2023-04-15T00:14:49;13.90;;;8.40;;
77012;SDS011;67260;53.130;17.982;2023-04-15T00:17:21;13.30;;;7.90;;
77012;SDS011;67260;53.130;17.982;2023-04-15T00:19:48;13.20;;;8.40;;
77012;SDS011;67260;53.130;17.982;2023-04-15T00:22:43;13.30;;;8.40;;
77012;SDS011;67260;53.130;17.982;2023-04-15T00:25:16;12.30;;;8.10;;
77012;SDS011;67260;53.130;17.982;2023-04-15T00:27:42;11.30;;;7.50;;
77012;SDS011;67260;53.130;17.982;2023-04-15T00:30:08;11.10;;;7.80;;
77012;SDS011;67260;53.130;17.982;2023-04-15T00:32:36;12.30;;;8.00;;
77012;SDS011;67260;53.130;17.982;2023-04-15T00:35:02;12.90;;;9.00;;
77012;SDS011;67260;53.130;17.982;2023-04-15T00:37:28;12.80;;;8.70;;
77012;SDS011;67260;53.130;17.982;2023-04-15T00:42:24;14.40;;;9.30;;
77012;SDS011;67260;53.130;17.982;2023-04-15T00:44:51;12.90;;;8.10;;
77012;SDS011;67260;53.130;17.982;2023-04-15T00:47:17;13.40;;;8.70;;
77012;SDS011;67260;53.130;17.982;2023-04-15T00:49:43;13.90;;;9.20;;
77012;SDS011;67260;53.130;17.982;2023-04-15T00:52:09;15.10;;;8.40;;
77012;SDS011;67260;53.130;17.982;2023-04-15T00:54:35;12.90;;;8.40;;
77012;SDS011;67260;53.130;17.982;2023-04-15T00:57:04;12.60;;;8.10;;
77012;SDS011;67260;53.130;17.982;2023-04-15T00:59:32;14.80;;;9.40;;
77012;SDS011;67260;53.130;17.982;2023-04-15T01:01:59;12.60;;;8.50;;
77012;SDS011;67260;53.130;17.982;2023-04-15T01:04:26;16.30;;;8.70;;
77012;SDS011;67260;53.130;17.982;2023-04-15T01:06:55;15.50;;;8.80;;
77012;SDS011;67260;53.130;17.982;2023-04-15T01:09:21;11.70;;;7.80;;
77012;SDS011;67260;53.130;17.982;2023-04-15T01:11:49;11.60;;;8.10;;
77012;SDS011;67260;53.130;17.982;2023-04-15T01:14:20;14.10;;;9.10;;
77012;SDS011;67260;53.130;17.982;2023-04-15T01:16:46;13.10;;;8.80;;
77012;SDS011;67260;53.130;17.982;2023-04-15T01:19:12;13.60;;;8.60;;
77012;SDS011;67260;53.130;17.982;2023-04-15T01:21:44;12.10;;;7.00;;
77012;SDS011;67260;53.130;17.982;2023-04-15T01:24:11;13.80;;;9.00;;
77012;SDS011;67260;53.130;17.982;2023-04-15T01:26:41;11.80;;;8.20;;
77012;SDS011;67260;53.130;17.982;2023-04-15T01:29:08;13.60;;;9.00;;
77012;SDS011;67260;53.130;17.982;2023-04-15T01:31:34;14.90;;;8.60;;
77012;SDS011;67260;53.130;17.982;2023-04-15T01:34:01;11.50;;;8.30;;
77012;SDS011;67260;53.130;17.982;2023-04-15T01:36:27;14.10;;;9.10;;
77012;SDS011;67260;53.130;17.982;2023-04-15T01:38:55;15.40;;;8.70;;
77012;SDS011;67260;53.130;17.982;2023-04-15T01:41:27;14.10;;;9.60;;
77012;SDS011;67260;53.130;17.982;2023-04-15T01:43:55;14.80;;;8.90;;
77012;SDS011;67260;53.130;17.982;2023-04-15T01:46:24;15.90;;;9.20;;
77012;SDS011;67260;53.130;17.982;2023-04-15T01:48:52;13.90;;;8.70;;
77012;SDS011;67260;53.130;17.982;2023-04-15T01:51:18;11.50;;;8.00;;
77012;SDS011;67260;53.130;17.982;2023-04-15T01:53:45;13.60;;;8.20;;
77012;SDS011;67260;53.130;17.982;2023-04-15T01:56:11;12.00;;;9.00;;
77012;SDS011;67260;53.130;17.982;2023-04-15T01:58:37;15.10;;;8.90;;
77012;SDS011;67260;53.130;17.982;2023-04-15T02:01:03;13.10;;;8.00;;
77012;SDS011;67260;53.130;17.982;2023-04-15T02:03:30;13.70;;;8.60;;
77012;SDS011;67260;53.130;17.982;2023-04-15T02:05:56;13.80;;;8.20;;
77012;SDS011;67260;53.130;17.982;2023-04-15T02:08:23;13.50;;;8.20;;
77012;SDS011;67260;53.130;17.982;2023-04-15T02:10:49;13.00;;;8.60;;
77012;SDS011;67260;53.130;17.982;2023-04-15T02:13:15;13.10;;;8.40;;
77012;SDS011;67260;53.130;17.982;2023-04-15T02:15:45;12.60;;;8.20;;
77012;SDS011;67260;53.130;17.982;2023-04-15T02:18:14;14.40;;;8.60;;
77012;SDS011;67260;53.130;17.982;2023-04-15T02:20:42;13.30;;;7.90;;
77012;SDS011;67260;53.130;17.982;2023-04-15T02:23:11;12.20;;;8.00;;
77012;SDS011;67260;53.130;17.982;2023-04-15T02:25:42;12.40;;;7.60;;
77012;SDS011;67260;53.130;17.982;2023-04-15T02:28:08;14.80;;;8.70;;
77012;SDS011;67260;53.130;17.982;2023-04-15T02:30:34;12.20;;;8.00;;
77012;SDS011;67260;53.130;17.982;2023-04-15T02:33:01;12.40;;;7.60;;
77012;SDS011;67260;53.130;17.982;2023-04-15T02:35:27;13.10;;;7.70;;
77012;SDS011;67260;53.130;17.982;2023-04-15T02:37:54;11.10;;;7.50;;
77012;SDS011;67260;53.130;17.982;2023-04-15T02:42:46;14.20;;;8.60;;
77012;SDS011;67260;53.130;17.982;2023-04-15T02:45:14;12.10;;;8.00;;
77012;SDS011;67260;53.130;17.982;2023-04-15T02:47:41;11.70;;;7.90;;
77012;SDS011;67260;53.130;17.982;2023-04-15T02:50:09;12.10;;;7.90;;
77012;SDS011;67260;53.130;17.982;2023-04-15T02:52:40;11.10;;;7.90;;
77012;SDS011;67260;53.130;17.982;2023-04-15T02:55:07;11.60;;;7.90;;
77012;SDS011;67260;53.130;17.982;2023-04-15T02:57:34;10.80;;;7.20;;
77012;SDS011;67260;53.130;17.982;2023-04-15T03:00:07;12.50;;;9.00;;
77012;SDS011;67260;53.130;17.982;2023-04-15T03:02:36;11.80;;;7.30;;
77012;SDS011;67260;53.130;17.982;2023-04-15T03:05:04;12.70;;;8.00;;
77012;SDS011;67260;53.130;17.982;2023-04-15T03:07:31;11.50;;;7.50;;
77012;SDS011;67260;53.130;17.982;2023-04-15T03:09:57;12.90;;;7.80;;
77012;SDS011;67260;53.130;17.982;2023-04-15T03:12:24;13.90;;;8.20;;
77012;SDS011;67260;53.130;17.982;2023-04-15T03:14:52;11.80;;;7.80;;
77012;SDS011;67260;53.130;17.982;2023-04-15T03:17:21;11.80;;;8.00;;
77012;SDS011;67260;53.130;17.982;2023-04-15T03:19:47;11.20;;;7.70;;
77012;SDS011;67260;53.130;17.982;2023-04-15T03:22:14;11.10;;;7.90;;
77012;SDS011;67260;53.130;17.982;2023-04-15T03:24:40;12.60;;;8.00;;
77012;SDS011;67260;53.130;17.982;2023-04-15T03:27:06;12.10;;;8.10;;
77012;SDS011;67260;53.130;17.982;2023-04-15T03:29:33;8.70;;;5.60;;
77012;SDS011;67260;53.130;17.982;2023-04-15T03:31:59;13.50;;;8.70;;
77012;SDS011;67260;53.130;17.982;2023-04-15T03:36:51;11.90;;;6.80;;
77012;SDS011;67260;53.130;17.982;2023-04-15T03:39:17;10.60;;;7.30;;
77012;SDS011;67260;53.130;17.982;2023-04-15T03:41:43;12.10;;;8.00;;
77012;SDS011;67260;53.130;17.982;2023-04-15T03:44:09;10.40;;;7.60;;
77012;SDS011;67260;53.130;17.982;2023-04-15T03:46:35;11.60;;;7.40;;
77012;SDS011;67260;53.130;17.982;2023-04-15T03:49:01;10.80;;;7.60;;
77012;SDS011;67260;53.130;17.982;2023-04-15T03:51:27;11.80;;;7.40;;
77012;SDS011;67260;53.130;17.982;2023-04-15T03:53:53;11.00;;;7.50;;
77012;SDS011;67260;53.130;17.982;2023-04-15T03:56:21;14.40;;;8.30;;
77012;SDS011;67260;53.130;17.982;2023-04-15T03:58:46;11.20;;;7.00;;
77012;SDS011;67260;53.130;17.982;2023-04-15T04:01:12;12.00;;;7.50;;
77012;SDS011;67260;53.130;17.982;2023-04-15T04:03:38;12.80;;;7.50;;
77012;SDS011;67260;53.130;17.982;2023-04-15T04:06:05;11.70;;;8.50;;
77012;SDS011;67260;53.130;17.982;2023-04-15T04:08:31;10.20;;;7.20;;
77012;SDS011;67260;53.130;17.982;2023-04-15T04:10:57;11.10;;;7.10;;
77012;SDS011;67260;53.130;17.982;2023-04-15T04:13:23;11.50;;;7.70;;
77012;SDS011;67260;53.130;17.982;2023-04-15T04:15:49;12.50;;;8.10;;
77012;SDS011;67260;53.130;17.982;2023-04-15T04:18:15;11.60;;;8.20;;
77012;SDS011;67260;53.130;17.982;2023-04-15T04:20:41;10.60;;;7.10;;
77012;SDS011;67260;53.130;17.982;2023-04-15T04:23:07;11.40;;;7.60;;
77012;SDS011;67260;53.130;17.982;2023-04-15T04:25:33;11.40;;;7.50;;
77012;SDS011;67260;53.130;17.982;2023-04-15T04:27:59;11.40;;;7.50;;
77012;SDS011;67260;53.130;17.982;2023-04-15T04:30:25;13.10;;;8.00;;
77012;SDS011;67260;53.130;17.982;2023-04-15T04:32:51;12.30;;;7.60;;
77012;SDS011;67260;53.130;17.982;2023-04-15T04:35:17;12.10;;;7.50;;
77012;SDS011;67260;53.130;17.982;2023-04-15T04:37:43;11.30;;;7.60;;
77012;SDS011;67260;53.130;17.982;2023-04-15T04:40:09;10.20;;;6.90;;
77012;SDS011;67260;53.130;17.982;2023-04-15T04:45:01;11.30;;;6.80;;
77012;SDS011;67260;53.130;17.982;2023-04-15T04:47:27;12.90;;;9.20;;
77012;SDS011;67260;53.130;17.982;2023-04-15T04:49:53;11.60;;;7.60;;
77012;SDS011;67260;53.130;17.982;2023-04-15T04:52:19;10.30;;;7.00;;
77012;SDS011;67260;53.130;17.982;2023-04-15T04:54:45;11.10;;;7.10;;
77012;SDS011;67260;53.130;17.982;2023-04-15T04:57:12;9.80;;;6.60;;
77012;SDS011;67260;53.130;17.982;2023-04-15T04:59:38;11.30;;;7.90;;
77012;SDS011;67260;53.130;17.982;2023-04-15T05:02:06;10.10;;;7.00;;
77012;SDS011;67260;53.130;17.982;2023-04-15T05:04:32;11.80;;;7.80;;
77012;SDS011;67260;53.130;17.982;2023-04-15T05:06:59;13.20;;;7.90;;
77012;SDS011;67260;53.130;17.982;2023-04-15T05:09:25;13.90;;;9.00;;
77012;SDS011;67260;53.130;17.982;2023-04-15T05:11:51;13.70;;;9.50;;
77012;SDS011;67260;53.130;17.982;2023-04-15T05:14:17;15.40;;;10.10;;
77012;SDS011;67260;53.130;17.982;2023-04-15T05:16:43;14.40;;;9.50;;
77012;SDS011;67260;53.130;17.982;2023-04-15T05:19:09;13.30;;;7.30;;
77012;SDS011;67260;53.130;17.982;2023-04-15T05:21:35;11.40;;;7.00;;
77012;SDS011;67260;53.130;17.982;2023-04-15T05:26:27;11.50;;;7.70;;
77012;SDS011;67260;53.130;17.982;2023-04-15T05:28:53;14.10;;;9.60;;
77012;SDS011;67260;53.130;17.982;2023-04-15T05:31:19;13.80;;;8.60;;
77012;SDS011;67260;53.130;17.982;2023-04-15T05:33:45;13.60;;;8.40;;
77012;SDS011;67260;53.130;17.982;2023-04-15T05:36:11;12.40;;;8.20;;
77012;SDS011;67260;53.130;17.982;2023-04-15T05:38:37;12.70;;;7.70;;
77012;SDS011;67260;53.130;17.982;2023-04-15T05:41:05;10.40;;;7.50;;
77012;SDS011;67260;53.130;17.982;2023-04-15T05:43:32;12.10;;;7.80;;
77012;SDS011;67260;53.130;17.982;2023-04-15T05:45:58;12.00;;;7.90;;
77012;SDS011;67260;53.130;17.982;2023-04-15T05:48:24;12.70;;;8.20;;
77012;SDS011;67260;53.130;17.982;2023-04-15T05:50:50;12.60;;;7.40;;
77012;SDS011;67260;53.130;17.982;2023-04-15T05:53:16;10.90;;;7.60;;
77012;SDS011;67260;53.130;17.982;2023-04-15T05:55:42;11.20;;;7.60;;
77012;SDS011;67260;53.130;17.982;2023-04-15T05:58:08;16.60;;;8.30;;
77012;SDS011;67260;53.130;17.982;2023-04-15T06:00:34;11.70;;;7.90;;
77012;SDS011;67260;53.130;17.982;2023-04-15T06:03:01;17.90;;;8.30;;
77012;SDS011;67260;53.130;17.982;2023-04-15T06:05:27;13.90;;;8.30;;
77012;SDS011;67260;53.130;17.982;2023-04-15T06:07:53;13.40;;;7.80;;
77012;SDS011;67260;53.130;17.982;2023-04-15T06:10:19;12.30;;;8.20;;
77012;SDS011;67260;53.130;17.982;2023-04-15T06:12:48;12.50;;;7.60;;
77012;SDS011;67260;53.130;17.982;2023-04-15T06:15:14;13.30;;;8.60;;
77012;SDS011;67260;53.130;17.982;2023-04-15T06:17:43;12.50;;;8.00;;
77012;SDS011;67260;53.130;17.982;2023-04-15T06:20:09;11.70;;;8.50;;
77012;SDS011;67260;53.130;17.982;2023-04-15T06:22:39;13.10;;;7.90;;
77012;SDS011;67260;53.130;17.982;2023-04-15T06:25:11;12.60;;;8.60;;
77012;SDS011;67260;53.130;17.982;2023-04-15T06:27:48;15.50;;;8.80;;
77012;SDS011;67260;53.130;17.982;2023-04-15T06:30:14;15.20;;;10.40;;
77012;SDS011;67260;53.130;17.982;2023-04-15T06:32:43;15.10;;;10.00;;
77012;SDS011;67260;53.130;17.982;2023-04-15T06:35:10;14.00;;;9.40;;
77012;SDS011;67260;53.130;17.982;2023-04-15T06:37:43;12.20;;;9.20;;
77012;SDS011;67260;53.130;17.982;2023-04-15T06:40:15;13.90;;;9.60;;
77012;SDS011;67260;53.130;17.982;2023-04-15T06:42:51;15.10;;;9.30;;
77012;SDS011;67260;53.130;17.982;2023-04-15T06:45:22;15.60;;;9.50;;
77012;SDS011;67260;53.130;17.982;2023-04-15T06:47:52;21.50;;;11.10;;
77012;SDS011;67260;53.130;17.982;2023-04-15T06:50:22;21.60;;;13.20;;
77012;SDS011;67260;53.130;17.982;2023-04-15T06:52:48;18.70;;;11.30;;
77012;SDS011;67260;53.130;17.982;2023-04-15T06:55:17;18.30;;;10.90;;
77012;SDS011;67260;53.130;17.982;2023-04-15T06:57:44;17.70;;;11.40;;
77012;SDS011;67260;53.130;17.982;2023-04-15T07:00:11;22.20;;;14.00;;
77012;SDS011;67260;53.130;17.982;2023-04-15T07:05:04;18.80;;;11.10;;
77012;SDS011;67260;53.130;17.982;2023-04-15T07:07:31;26.50;;;13.30;;
77012;SDS011;67260;53.130;17.982;2023-04-15T07:09:58;23.00;;;14.00;;
77012;SDS011;67260;53.130;17.982;2023-04-15T07:12:30;18.90;;;11.00;;
77012;SDS011;67260;53.130;17.982;2023-04-15T07:14:56;35.70;;;19.30;;
77012;SDS011;67260;53.130;17.982;2023-04-15T07:17:23;59.80;;;20.90;;
77012;SDS011;67260;53.130;17.982;2023-04-15T07:19:49;48.20;;;18.50;;
77012;SDS011;67260;53.130;17.982;2023-04-15T07:22:15;20.10;;;11.90;;
77012;SDS011;67260;53.130;17.982;2023-04-15T07:24:42;19.00;;;12.50;;
77012;SDS011;67260;53.130;17.982;2023-04-15T07:27:09;18.70;;;11.40;;
77012;SDS011;67260;53.130;17.982;2023-04-15T07:29:35;14.30;;;9.80;;
77012;SDS011;67260;53.130;17.982;2023-04-15T07:32:01;15.70;;;10.40;;
77012;SDS011;67260;53.130;17.982;2023-04-15T07:34:28;18.90;;;10.50;;
77012;SDS011;67260;53.130;17.982;2023-04-15T07:36:57;13.10;;;8.90;;
77012;SDS011;67260;53.130;17.982;2023-04-15T07:39:23;16.90;;;9.90;;
77012;SDS011;67260;53.130;17.982;2023-04-15T07:41:49;12.30;;;8.80;;
77012;SDS011;67260;53.130;17.982;2023-04-15T07:44:15;13.80;;;9.20;;
77012;SDS011;67260;53.130;17.982;2023-04-15T07:46:42;17.10;;;10.10;;
77012;SDS011;67260;53.130;17.982;2023-04-15T07:49:08;18.30;;;9.70;;
77012;SDS011;67260;53.130;17.982;2023-04-15T07:51:34;13.50;;;9.80;;
77012;SDS011;67260;53.130;17.982;2023-04-15T07:54:00;15.20;;;9.70;;
77012;SDS011;67260;53.130;17.982;2023-04-15T07:56:26;14.30;;;10.20;;
77012;SDS011;67260;53.130;17.982;2023-04-15T07:58:52;14.70;;;10.60;;
77012;SDS011;67260;53.130;17.982;2023-04-15T08:01:22;14.50;;;9.90;;
77012;SDS011;67260;53.130;17.982;2023-04-15T08:03:49;15.90;;;10.00;;
77012;SDS011;67260;53.130;17.982;2023-04-15T08:06:16;14.60;;;9.70;;
77012;SDS011;67260;53.130;17.982;2023-04-15T08:08:43;14.30;;;9.70;;
77012;SDS011;67260;53.130;17.982;2023-04-15T08:11:12;16.20;;;11.20;;
77012;SDS011;67260;53.130;17.982;2023-04-15T08:13:39;18.20;;;12.10;;
77012;SDS011;67260;53.130;17.982;2023-04-15T08:18:46;14.90;;;10.30;;
77012;SDS011;67260;53.130;17.982;2023-04-15T08:21:17;13.40;;;9.40;;
77012;SDS011;67260;53.130;17.982;2023-04-15T08:23:45;14.80;;;9.80;;
77012;SDS011;67260;53.130;17.982;2023-04-15T08:26:19;14.30;;;9.50;;
77012;SDS011;67260;53.130;17.982;2023-04-15T08:28:46;13.80;;;9.60;;
77012;SDS011;67260;53.130;17.982;2023-04-15T08:31:14;16.90;;;10.40;;
77012;SDS011;67260;53.130;17.982;2023-04-15T08:33:42;14.00;;;9.70;;
77012;SDS011;67260;53.130;17.982;2023-04-15T08:36:08;14.00;;;8.40;;
77012;SDS011;67260;53.130;17.982;2023-04-15T08:38:35;16.00;;;11.00;;
77012;SDS011;67260;53.130;17.982;2023-04-15T08:41:19;14.30;;;9.50;;
77012;SDS011;67260;53.130;17.982;2023-04-15T08:43:51;17.00;;;9.60;;
77012;SDS011;67260;53.130;17.982;2023-04-15T08:46:20;15.00;;;9.50;;
77012;SDS011;67260;53.130;17.982;2023-04-15T08:51:14;15.20;;;9.30;;
77012;SDS011;67260;53.130;17.982;2023-04-15T08:53:45;13.30;;;8.90;;
77012;SDS011;67260;53.130;17.982;2023-04-15T08:56:13;13.70;;;9.10;;
77012;SDS011;67260;53.130;17.982;2023-04-15T08:58:42;14.70;;;10.00;;
77012;SDS011;67260;53.130;17.982;2023-04-15T09:01:15;17.40;;;10.10;;
77012;SDS011;67260;53.130;17.982;2023-04-15T09:03:47;17.30;;;11.40;;
77012;SDS011;67260;53.130;17.982;2023-04-15T09:06:17;15.20;;;9.00;;
77012;SDS011;67260;53.130;17.982;2023-04-15T09:08:43;16.90;;;8.70;;
77012;SDS011;67260;53.130;17.982;2023-04-15T09:11:09;15.30;;;10.30;;
77012;SDS011;67260;53.130;17.982;2023-04-15T09:13:38;15.50;;;8.50;;
77012;SDS011;67260;53.130;17.982;2023-04-15T09:16:05;15.80;;;10.40;;
77012;SDS011;67260;53.130;17.982;2023-04-15T09:18:34;13.20;;;9.30;;
77012;SDS011;67260;53.130;17.982;2023-04-15T09:21:05;15.40;;;10.00;;
77012;SDS011;67260;53.130;17.982;2023-04-15T09:23:34;15.80;;;9.20;;
77012;SDS011;67260;53.130;17.982;2023-04-15T09:26:03;14.90;;;10.00;;
77012;SDS011;67260;53.130;17.982;2023-04-15T09:28:33;16.60;;;10.30;;
77012;SDS011;67260;53.130;17.982;2023-04-15T09:31:14;15.50;;;9.80;;
77012;SDS011;67260;53.130;17.982;2023-04-15T09:33:52;13.90;;;8.80;;
77012;SDS011;67260;53.130;17.982;2023-04-15T09:36:25;14.40;;;8.90;;
77012;SDS011;67260;53.130;17.982;2023-04-15T09:38:56;14.20;;;9.50;;
77012;SDS011;67260;53.130;17.982;2023-04-15T09:41:24;13.50;;;9.10;;
77012;SDS011;67260;53.130;17.982;2023-04-15T09:43:50;14.80;;;9.60;;
77012;SDS011;67260;53.130;17.982;2023-04-15T09:46:17;22.10;;;10.20;;
77012;SDS011;67260;53.130;17.982;2023-04-15T09:49:05;14.60;;;9.00;;
77012;SDS011;67260;53.130;17.982;2023-04-15T09:51:36;13.30;;;8.90;;
77012;SDS011;67260;53.130;17.982;2023-04-15T09:54:03;12.20;;;7.10;;
77012;SDS011;67260;53.130;17.982;2023-04-15T09:56:36;15.10;;;9.10;;
77012;SDS011;67260;53.130;17.982;2023-04-15T09:59:06;12.70;;;8.60;;
77012;SDS011;67260;53.130;17.982;2023-04-15T10:01:38;12.80;;;8.50;;
77012;SDS011;67260;53.130;17.982;2023-04-15T10:04:07;16.30;;;9.80;;
77012;SDS011;67260;53.130;17.982;2023-04-15T10:06:37;12.90;;;8.40;;
77012;SDS011;67260;53.130;17.982;2023-04-15T10:09:05;12.60;;;8.50;;
77012;SDS011;67260;53.130;17.982;2023-04-15T10:11:32;14.70;;;8.80;;
77012;SDS011;67260;53.130;17.982;2023-04-15T10:14:00;14.40;;;8.90;;
77012;SDS011;67260;53.130;17.982;2023-04-15T10:16:26;13.00;;;8.60;;
77012;SDS011;67260;53.130;17.982;2023-04-15T10:18:55;14.00;;;9.50;;
77012;SDS011;67260;53.130;17.982;2023-04-15T10:21:23;13.00;;;7.80;;
77012;SDS011;67260;53.130;17.982;2023-04-15T10:23:50;14.20;;;8.50;;
77012;SDS011;67260;53.130;17.982;2023-04-15T10:28:44;17.20;;;9.80;;
77012;SDS011;67260;53.130;17.982;2023-04-15T10:31:13;10.10;;;6.80;;
77012;SDS011;67260;53.130;17.982;2023-04-15T10:33:40;13.40;;;8.90;;
77012;SDS011;67260;53.130;17.982;2023-04-15T10:36:10;13.00;;;8.70;;
77012;SDS011;67260;53.130;17.982;2023-04-15T10:38:41;15.80;;;8.40;;
77012;SDS011;67260;53.130;17.982;2023-04-15T10:43:47;15.30;;;9.80;;
77012;SDS011;67260;53.130;17.982;2023-04-15T10:46:22;13.80;;;9.10;;
77012;SDS011;67260;53.130;17.982;2023-04-15T10:49:09;13.60;;;8.60;;
77012;SDS011;67260;53.130;17.982;2023-04-15T10:51:40;13.30;;;7.50;;
77012;SDS011;67260;53.130;17.982;2023-04-15T10:54:53;14.70;;;9.50;;
77012;SDS011;67260;53.130;17.982;2023-04-15T10:59:30;12.60;;;8.60;;
77012;SDS011;67260;53.130;17.982;2023-04-15T11:02:15;13.40;;;8.60;;
77012;SDS011;67260;53.130;17.982;2023-04-15T11:04:51;13.90;;;8.80;;
77012;SDS011;67260;53.130;17.982;2023-04-15T11:07:35;12.90;;;8.70;;
77012;SDS011;67260;53.130;17.982;2023-04-15T11:10:05;14.10;;;9.00;;
77012;SDS011;67260;53.130;17.982;2023-04-15T11:12:57;13.50;;;7.90;;
77012;SDS011;67260;53.130;17.982;2023-04-15T11:15:31;12.50;;;7.90;;
77012;SDS011;67260;53.130;17.982;2023-04-15T11:20:42;12.60;;;8.30;;
77012;SDS011;67260;53.130;17.982;2023-04-15T11:23:11;14.60;;;9.30;;
77012;SDS011;67260;53.130;17.982;2023-04-15T11:25:39;13.90;;;8.70;;
77012;SDS011;67260;53.130;17.982;2023-04-15T11:28:05;13.80;;;8.60;;
77012;SDS011;67260;53.130;17.982;2023-04-15T11:30:33;16.40;;;8.30;;
77012;SDS011;67260;53.130;17.982;2023-04-15T11:33:01;11.40;;;7.30;;
77012;SDS011;67260;53.130;17.982;2023-04-15T11:35:30;14.60;;;8.90;;
77012;SDS011;67260;53.130;17.982;2023-04-15T11:37:56;14.50;;;8.90;;
77012;SDS011;67260;53.130;17.982;2023-04-15T11:40:24;16.70;;;8.80;;
77012;SDS011;67260;53.130;17.982;2023-04-15T11:43:10;14.90;;;9.30;;
77012;SDS011;67260;53.130;17.982;2023-04-15T11:45:55;17.90;;;11.00;;
77012;SDS011;67260;53.130;17.982;2023-04-15T11:48:24;13.50;;;8.50;;
77012;SDS011;67260;53.130;17.982;2023-04-15T11:50:54;17.60;;;9.60;;
77012;SDS011;67260;53.130;17.982;2023-04-15T11:53:38;13.40;;;8.20;;
77012;SDS011;67260;53.130;17.982;2023-04-15T11:56:21;14.70;;;9.10;;
77012;SDS011;67260;53.130;17.982;2023-04-15T11:58:55;10.00;;;6.50;;
77012;SDS011;67260;53.130;17.982;2023-04-15T12:01:34;14.90;;;9.60;;
77012;SDS011;67260;53.130;17.982;2023-04-15T12:04:14;13.80;;;8.10;;
77012;SDS011;67260;53.130;17.982;2023-04-15T12:06:49;14.80;;;8.50;;
77012;SDS011;67260;53.130;17.982;2023-04-15T12:09:19;13.40;;;8.60;;
77012;SDS011;67260;53.130;17.982;2023-04-15T12:11:47;12.70;;;7.40;;
77012;SDS011;67260;53.130;17.982;2023-04-15T12:14:23;11.80;;;7.70;;
77012;SDS011;67260;53.130;17.982;2023-04-15T12:16:58;14.40;;;8.70;;
77012;SDS011;67260;53.130;17.982;2023-04-15T12:19:29;13.30;;;8.80;;
77012;SDS011;67260;53.130;17.982;2023-04-15T12:21:58;13.10;;;8.10;;
77012;SDS011;67260;53.130;17.982;2023-04-15T12:24:38;10.90;;;7.20;;
77012;SDS011;67260;53.130;17.982;2023-04-15T12:27:12;12.30;;;7.70;;
77012;SDS011;67260;53.130;17.982;2023-04-15T12:30:05;13.40;;;7.60;;
77012;SDS011;67260;53.130;17.982;2023-04-15T12:32:38;13.30;;;8.20;;
77012;SDS011;67260;53.130;17.982;2023-04-15T12:35:06;13.40;;;9.00;;
77012;SDS011;67260;53.130;17.982;2023-04-15T12:37:35;11.60;;;7.70;;
77012;SDS011;67260;53.130;17.982;2023-04-15T12:40:01;12.00;;;8.10;;
77012;SDS011;67260;53.130;17.982;2023-04-15T12:42:29;14.10;;;8.00;;
77012;SDS011;67260;53.130;17.982;2023-04-15T12:44:55;11.80;;;8.20;;
77012;SDS011;67260;53.130;17.982;2023-04-15T12:47:27;14.30;;;9.30;;
77012;SDS011;67260;53.130;17.982;2023-04-15T12:49:53;14.00;;;9.20;;
77012;SDS011;67260;53.130;17.982;2023-04-15T12:52:19;13.30;;;8.90;;
77012;SDS011;67260;53.130;17.982;2023-04-15T12:54:45;17.50;;;10.90;;
77012;SDS011;67260;53.130;17.982;2023-04-15T12:57:11;15.40;;;9.50;;
77012;SDS011;67260;53.130;17.982;2023-04-15T12:59:37;20.60;;;11.70;;
77012;SDS011;67260;53.130;17.982;2023-04-15T13:02:03;15.10;;;9.10;;
77012;SDS011;67260;53.130;17.982;2023-04-15T13:04:31;13.20;;;8.40;;
77012;SDS011;67260;53.130;17.982;2023-04-15T13:07:04;12.20;;;8.80;;
77012;SDS011;67260;53.130;17.982;2023-04-15T13:09:30;11.40;;;7.80;;
77012;SDS011;67260;53.130;17.982;2023-04-15T13:11:57;11.00;;;8.00;;
77012;SDS011;67260;53.130;17.982;2023-04-15T13:14:26;8.90;;;6.50;;
77012;SDS011;67260;53.130;17.982;2023-04-15T13:16:57;11.20;;;7.10;;
77012;SDS011;67260;53.130;17.982;2023-04-15T13:19:23;13.20;;;8.00;;
77012;SDS011;67260;53.130;17.982;2023-04-15T13:21:50;20.10;;;12.20;;
77012;SDS011;67260;53.130;17.982;2023-04-15T13:24:16;11.60;;;7.50;;
77012;SDS011;67260;53.130;17.982;2023-04-15T13:26:42;12.20;;;8.30;;
77012;SDS011;67260;53.130;17.982;2023-04-15T13:29:09;17.90;;;14.00;;
77012;SDS011;67260;53.130;17.982;2023-04-15T13:31:43;8.80;;;6.50;;
77012;SDS011;67260;53.130;17.982;2023-04-15T13:34:11;13.30;;;7.90;;
77012;SDS011;67260;53.130;17.982;2023-04-15T13:36:37;11.00;;;7.50;;
77012;SDS011;67260;53.130;17.982;2023-04-15T13:39:06;16.50;;;8.70;;
77012;SDS011;67260;53.130;17.982;2023-04-15T13:41:35;11.30;;;7.50;;
77012;SDS011;67260;53.130;17.982;2023-04-15T13:44:04;34.50;;;20.30;;
77012;SDS011;67260;53.130;17.982;2023-04-15T13:46:30;13.20;;;8.50;;
77012;SDS011;67260;53.130;17.982;2023-04-15T13:49:03;15.70;;;9.90;;
77012;SDS011;67260;53.130;17.982;2023-04-15T13:51:29;11.50;;;6.70;;
77012;SDS011;67260;53.130;17.982;2023-04-15T13:53:57;11.10;;;7.40;;
77012;SDS011;67260;53.130;17.982;2023-04-15T13:56:25;24.10;;;17.10;;
77012;SDS011;67260;53.130;17.982;2023-04-15T13:58:51;11.90;;;7.30;;
77012;SDS011;67260;53.130;17.982;2023-04-15T14:01:20;12.70;;;8.80;;
77012;SDS011;67260;53.130;17.982;2023-04-15T14:03:57;12.20;;;7.60;;
77012;SDS011;67260;53.130;17.982;2023-04-15T14:06:27;11.70;;;8.10;;
77012;SDS011;67260;53.130;17.982;2023-04-15T14:09:37;11.80;;;7.50;;
77012;SDS011;67260;53.130;17.982;2023-04-15T14:12:06;11.80;;;6.90;;
77012;SDS011;67260;53.130;17.982;2023-04-15T14:14:34;9.80;;;6.60;;
77012;SDS011;67260;53.130;17.982;2023-04-15T14:17:02;11.90;;;7.70;;
77012;SDS011;67260;53.130;17.982;2023-04-15T14:19:29;10.30;;;6.80;;
77012;SDS011;67260;53.130;17.982;2023-04-15T14:21:56;11.10;;;6.30;;
77012;SDS011;67260;53.130;17.982;2023-04-15T14:26:48;9.00;;;6.00;;
77012;SDS011;67260;53.130;17.982;2023-04-15T14:31:49;18.40;;;12.50;;
77012;SDS011;67260;53.130;17.982;2023-04-15T14:34:50;10.60;;;6.80;;
77012;SDS011;67260;53.130;17.982;2023-04-15T14:37:20;10.20;;;6.00;;
77012;SDS011;67260;53.130;17.982;2023-04-15T14:39:49;10.70;;;6.90;;
77012;SDS011;67260;53.130;17.982;2023-04-15T14:42:15;9.40;;;5.80;;
77012;SDS011;67260;53.130;17.982;2023-04-15T14:44:41;10.80;;;6.30;;
77012;SDS011;67260;53.130;17.982;2023-04-15T14:47:09;8.10;;;5.30;;
77012;SDS011;67260;53.130;17.982;2023-04-15T14:49:36;8.60;;;5.10;;
77012;SDS011;67260;53.130;17.982;2023-04-15T14:54:28;8.20;;;5.40;;
77012;SDS011;67260;53.130;17.982;2023-04-15T14:56:57;7.40;;;5.00;;
77012;SDS011;67260;53.130;17.982;2023-04-15T14:59:24;9.50;;;6.20;;
77012;SDS011;67260;53.130;17.982;2023-04-15T15:01:50;9.00;;;5.50;;
77012;SDS011;67260;53.130;17.982;2023-04-15T15:04:19;9.50;;;6.00;;
77012;SDS011;67260;53.130;17.982;2023-04-15T15:06:50;10.10;;;6.20;;
77012;SDS011;67260;53.130;17.982;2023-04-15T15:09:17;11.50;;;6.00;;
77012;SDS011;67260;53.130;17.982;2023-04-15T15:11:45;11.20;;;7.00;;